sensor_id;sensor_type;location;lat;lon;timestamp;temperature;humidity
22984;DHT22;11658;48.908;9.140;2023-09-12T04:01:34;18.40;99.90
22984;DHT22;11658;48.908;9.140;2023-09-12T04:04:00;18.40;99.90
22984;DHT22;11658;48.908;9.140;2023-09-12T04:06:25;18.30;99.90
22984;DHT22;11658;48.908;9.140;2023-09-12T04:08:51;18.30;99.90
22984;DHT22;11658;48.908;9.140;2023-09-12T04:11:16;18.30;99.90
22984;DHT22;11658;48.908;9.140;2023-09-12T04:13:42;18.30;99.90
22984;DHT22;11658;48.908;9.140;2023-09-12T04:16:09;18.30;99.90
22984;DHT22;11658;48.908;9.140;2023-09-12T04:18:35;18.30;99.90
22984;DHT22;11658;48.908;9.140;2023-09-12T04:21:00;18.40;99.90
22984;DHT22;11658;48.908;9.140;2023-09-12T04:23:26;18.50;99.90
22984;DHT22;11658;48.908;9.140;2023-09-12T04:25:51;18.50;99.90
22984;DHT22;11658;48.908;9.140;2023-09-12T04:28:17;18.60;99.90
22984;DHT22;11658;48.908;9.140;2023-09-12T04:30:42;18.60;99.90
22984;DHT22;11658;48.908;9.140;2023-09-12T04:33:08;18.70;99.90
22984;DHT22;11658;48.908;9.140;2023-09-12T04:35:34;18.70;99.90
22984;DHT22;11658;48.908;9.140;2023-09-12T04:38:00;18.70;99.90
22984;DHT22;11658;48.908;9.140;2023-09-12T04:40:26;18.70;99.90
22984;DHT22;11658;48.908;9.140;2023-09-12T04:42:51;18.80;99.90
22984;DHT22;11658;48.908;9.140;2023-09-12T04:45:17;18.80;99.90
22984;DHT22;11658;48.908;9.140;2023-09-12T04:47:42;18.80;99.90
22984;DHT22;11658;48.908;9.140;2023-09-12T04:50:08;18.80;99.90
22984;DHT22;11658;48.908;9.140;2023-09-12T04:52:34;18.90;99.90
22984;DHT22;11658;48.908;9.140;2023-09-12T04:55:00;18.90;99.90
22984;DHT22;11658;48.908;9.140;2023-09-12T04:57:26;19.00;99.90
22984;DHT22;11658;48.908;9.140;2023-09-12T04:59:53;18.90;99.90
22984;DHT22;11658;48.908;9.140;2023-09-12T05:02:19;19.00;99.90
22984;DHT22;11658;48.908;9.140;2023-09-12T05:04:44;19.00;99.90
22984;DHT22;11658;48.908;9.140;2023-09-12T05:07:10;19.10;99.90
22984;DHT22;11658;48.908;9.140;2023-09-12T05:09:36;19.10;99.90
22984;DHT22;11658;48.908;9.140;2023-09-12T05:12:01;19.10;99.90
22984;DHT22;11658;48.908;9.140;2023-09-12T05:14:27;19.10;99.90
22984;DHT22;11658;48.908;9.140;2023-09-12T05:16:52;19.10;99.90
22984;DHT22;11658;48.908;9.140;2023-09-12T05:19:18;19.10;99.90
22984;DHT22;11658;48.908;9.140;2023-09-12T05:21:44;19.20;99.90
22984;DHT22;11658;48.908;9.140;2023-09-12T05:24:10;19.20;99.90
22984;DHT22;11658;48.908;9.140;2023-09-12T05:26:36;19.30;99.90
22984;DHT22;11658;48.908;9.140;2023-09-12T05:29:01;19.20;99.90
22984;DHT22;11658;48.908;9.140;2023-09-12T05:31:27;19.30;99.90
22984;DHT22;11658;48.908;9.140;2023-09-12T05:33:53;19.50;99.90
22984;DHT22;11658;48.908;9.140;2023-09-12T05:36:19;19.60;99.90
22984;DHT22;11658;48.908;9.140;2023-09-12T05:38:44;19.70;99.90
22984;DHT22;11658;48.908;9.140;2023-09-12T05:41:10;19.90;99.90
22984;DHT22;11658;48.908;9.140;2023-09-12T05:43:35;20.00;99.90
22984;DHT22;11658;48.908;9.140;2023-09-12T05:46:02;20.20;99.90
22984;DHT22;11658;48.908;9.140;2023-09-12T05:48:27;20.30;99.90
22984;DHT22;11658;48.908;9.140;2023-09-12T05:50:53;20.50;99.90
22984;DHT22;11658;48.908;9.140;2023-09-12T05:53:18;20.60;99.90
22984;DHT22;11658;48.908;9.140;2023-09-12T05:55:44;20.60;99.90
22984;DHT22;11658;48.908;9.140;2023-09-12T05:58:10;20.70;99.90
22984;DHT22;11658;48.908;9.140;2023-09-12T06:00:35;20.90;99.90
22984;DHT22;11658;48.908;9.140;2023-09-12T06:03:01;21.00;99.90
22984;DHT22;11658;48.908;9.140;2023-09-12T06:05:27;21.10;99.90
22984;DHT22;11658;48.908;9.140;2023-09-12T06:07:52;21.20;99.90
22984;DHT22;11658;48.908;9.140;2023-09-12T06:10:18;21.30;99.90
22984;DHT22;11658;48.908;9.140;2023-09-12T06:12:43;21.40;99.90
22984;DHT22;11658;48.908;9.140;2023-09-12T06:15:09;21.40;99.90
22984;DHT22;11658;48.908;9.140;2023-09-12T06:17:35;21.40;99.90
22984;DHT22;11658;48.908;9.140;2023-09-12T06:20:00;21.70;99.90
22984;DHT22;11658;48.908;9.140;2023-09-12T06:22:26;21.70;99.90
22984;DHT22;11658;48.908;9.140;2023-09-12T06:24:53;21.80;99.90
22984;DHT22;11658;48.908;9.140;2023-09-12T06:27:18;21.90;99.90
22984;DHT22;11658;48.908;9.140;2023-09-12T06:29:50;21.90;99.90
22984;DHT22;11658;48.908;9.140;2023-09-12T06:37:26;22.00;99.90
22984;DHT22;11658;48.908;9.140;2023-09-12T06:39:52;22.10;99.90
22984;DHT22;11658;48.908;9.140;2023-09-12T06:44:53;22.20;99.90
22984;DHT22;11658;48.908;9.140;2023-09-12T06:47:18;22.30;99.90
22984;DHT22;11658;48.908;9.140;2023-09-12T06:49:44;22.40;99.90
22984;DHT22;11658;48.908;9.140;2023-09-12T06:52:10;22.50;99.90
22984;DHT22;11658;48.908;9.140;2023-09-12T06:54:35;22.50;99.90
22984;DHT22;11658;48.908;9.140;2023-09-12T06:57:01;22.60;99.90
22984;DHT22;11658;48.908;9.140;2023-09-12T06:59:27;22.70;99.90
22984;DHT22;11658;48.908;9.140;2023-09-12T07:01:52;22.80;99.90
22984;DHT22;11658;48.908;9.140;2023-09-12T07:04:18;22.90;99.90
22984;DHT22;11658;48.908;9.140;2023-09-12T07:06:44;23.10;99.90
22984;DHT22;11658;48.908;9.140;2023-09-12T07:09:09;23.20;99.90
22984;DHT22;11658;48.908;9.140;2023-09-12T07:11:37;23.30;99.90
22984;DHT22;11658;48.908;9.140;2023-09-12T07:14:02;23.40;99.90
22984;DHT22;11658;48.908;9.140;2023-09-12T07:16:30;23.50;99.90
22984;DHT22;11658;48.908;9.140;2023-09-12T07:18:56;23.60;99.90
22984;DHT22;11658;48.908;9.140;2023-09-12T07:21:22;23.70;99.90
22984;DHT22;11658;48.908;9.140;2023-09-12T07:23:48;23.80;99.90
22984;DHT22;11658;48.908;9.140;2023-09-12T07:26:14;23.90;99.90
22984;DHT22;11658;48.908;9.140;2023-09-12T07:28:40;23.70;99.90
22984;DHT22;11658;48.908;9.140;2023-09-12T07:31:06;23.70;99.90
22984;DHT22;11658;48.908;9.140;2023-09-12T07:33:32;23.60;99.90
22984;DHT22;11658;48.908;9.140;2023-09-12T07:35:58;23.60;99.90
22984;DHT22;11658;48.908;9.140;2023-09-12T07:38:25;23.60;99.90
22984;DHT22;11658;48.908;9.140;2023-09-12T07:40:51;23.70;99.90
22984;DHT22;11658;48.908;9.140;2023-09-12T07:43:16;23.70;99.90
22984;DHT22;11658;48.908;9.140;2023-09-12T07:45:42;23.80;99.90
22984;DHT22;11658;48.908;9.140;2023-09-12T07:48:09;23.90;99.90
22984;DHT22;11658;48.908;9.140;2023-09-12T07:50:36;24.00;99.90
22984;DHT22;11658;48.908;9.140;2023-09-12T07:53:07;24.10;99.90
22984;DHT22;11658;48.908;9.140;2023-09-12T07:55:37;24.20;99.90
22984;DHT22;11658;48.908;9.140;2023-09-12T07:58:14;24.40;99.90
22984;DHT22;11658;48.908;9.140;2023-09-12T08:00:39;24.40;99.90
22984;DHT22;11658;48.908;9.140;2023-09-12T08:03:05;24.30;99.90
22984;DHT22;11658;48.908;9.140;2023-09-12T08:05:31;24.40;99.90
22984;DHT22;11658;48.908;9.140;2023-09-12T08:07:56;24.50;99.90
22984;DHT22;11658;48.908;9.140;2023-09-12T08:10:22;24.60;99.90
22984;DHT22;11658;48.908;9.140;2023-09-12T08:12:48;24.70;99.90
22984;DHT22;11658;48.908;9.140;2023-09-12T08:15:13;25.00;99.90
22984;DHT22;11658;48.908;9.140;2023-09-12T08:17:39;25.20;99.90
22984;DHT22;11658;48.908;9.140;2023-09-12T08:20:06;25.20;99.90
22984;DHT22;11658;48.908;9.140;2023-09-12T08:22:35;25.20;99.90
22984;DHT22;11658;48.908;9.140;2023-09-12T08:25:01;25.10;99.90
22984;DHT22;11658;48.908;9.140;2023-09-12T08:27:27;25.00;99.90
22984;DHT22;11658;48.908;9.140;2023-09-12T08:29:52;25.00;99.90
22984;DHT22;11658;48.908;9.140;2023-09-12T08:32:18;24.90;99.90
22984;DHT22;11658;48.908;9.140;2023-09-12T08:34:45;24.90;99.90
22984;DHT22;11658;48.908;9.140;2023-09-12T08:37:11;24.80;99.90
22984;DHT22;11658;48.908;9.140;2023-09-12T08:39:41;24.90;99.90
22984;DHT22;11658;48.908;9.140;2023-09-12T08:42:13;25.00;99.90
22984;DHT22;11658;48.908;9.140;2023-09-12T08:44:40;25.00;99.90
22984;DHT22;11658;48.908;9.140;2023-09-12T08:47:08;25.00;99.90
22984;DHT22;11658;48.908;9.140;2023-09-12T08:49:35;25.00;99.90
22984;DHT22;11658;48.908;9.140;2023-09-12T08:52:03;25.00;99.90
22984;DHT22;11658;48.908;9.140;2023-09-12T08:54:29;25.00;99.90
22984;DHT22;11658;48.908;9.140;2023-09-12T08:56:55;25.10;99.90
22984;DHT22;11658;48.908;9.140;2023-09-12T08:59:21;25.20;99.90
22984;DHT22;11658;48.908;9.140;2023-09-12T09:01:47;25.50;99.90
22984;DHT22;11658;48.908;9.140;2023-09-12T09:04:18;25.60;99.90
22984;DHT22;11658;48.908;9.140;2023-09-12T09:06:45;25.70;99.90
22984;DHT22;11658;48.908;9.140;2023-09-12T09:09:12;25.50;99.90
22984;DHT22;11658;48.908;9.140;2023-09-12T09:11:38;25.40;99.90
22984;DHT22;11658;48.908;9.140;2023-09-12T09:14:04;25.30;99.90
22984;DHT22;11658;48.908;9.140;2023-09-12T09:16:30;25.30;99.90
22984;DHT22;11658;48.908;9.140;2023-09-12T09:19:04;25.50;99.90
22984;DHT22;11658;48.908;9.140;2023-09-12T09:21:35;25.60;99.90
22984;DHT22;11658;48.908;9.140;2023-09-12T09:24:07;25.70;99.90
22984;DHT22;11658;48.908;9.140;2023-09-12T09:29:14;26.10;99.90
22984;DHT22;11658;48.908;9.140;2023-09-12T09:31:41;26.30;99.90
22984;DHT22;11658;48.908;9.140;2023-09-12T09:34:15;26.40;99.90
22984;DHT22;11658;48.908;9.140;2023-09-12T09:36:51;26.50;99.90
22984;DHT22;11658;48.908;9.140;2023-09-12T09:39:27;26.60;99.90
22984;DHT22;11658;48.908;9.140;2023-09-12T09:41:57;26.60;99.90
22984;DHT22;11658;48.908;9.140;2023-09-12T09:44:25;26.60;99.90
22984;DHT22;11658;48.908;9.140;2023-09-12T09:46:55;26.60;99.90
22984;DHT22;11658;48.908;9.140;2023-09-12T09:49:23;26.70;99.90
22984;DHT22;11658;48.908;9.140;2023-09-12T09:51:49;26.80;99.90
22984;DHT22;11658;48.908;9.140;2023-09-12T09:54:15;27.00;99.90
22984;DHT22;11658;48.908;9.140;2023-09-12T09:56:54;27.00;99.90
22984;DHT22;11658;48.908;9.140;2023-09-12T09:59:25;27.10;99.90
22984;DHT22;11658;48.908;9.140;2023-09-12T10:01:59;27.10;99.90
22984;DHT22;11658;48.908;9.140;2023-09-12T10:04:27;27.20;99.90
22984;DHT22;11658;48.908;9.140;2023-09-12T10:06:56;27.40;99.90
22984;DHT22;11658;48.908;9.140;2023-09-12T10:09:23;27.40;99.90
22984;DHT22;11658;48.908;9.140;2023-09-12T10:11:51;27.50;99.90
22984;DHT22;11658;48.908;9.140;2023-09-12T10:14:19;27.50;99.90
22984;DHT22;11658;48.908;9.140;2023-09-12T10:16:47;27.50;99.90
22984;DHT22;11658;48.908;9.140;2023-09-12T10:19:15;27.40;99.90
22984;DHT22;11658;48.908;9.140;2023-09-12T10:21:59;27.40;99.90
22984;DHT22;11658;48.908;9.140;2023-09-12T10:24:30;27.40;99.90
22984;DHT22;11658;48.908;9.140;2023-09-12T10:26:57;27.50;99.90
22984;DHT22;11658;48.908;9.140;2023-09-12T10:29:23;27.60;99.90
22984;DHT22;11658;48.908;9.140;2023-09-12T10:31:49;27.80;99.90
22984;DHT22;11658;48.908;9.140;2023-09-12T10:34:16;28.00;99.90
22984;DHT22;11658;48.908;9.140;2023-09-12T10:36:43;28.20;99.90
22984;DHT22;11658;48.908;9.140;2023-09-12T10:39:10;28.30;99.90
22984;DHT22;11658;48.908;9.140;2023-09-12T10:41:40;28.30;99.90
22984;DHT22;11658;48.908;9.140;2023-09-12T10:44:10;28.30;99.90
22984;DHT22;11658;48.908;9.140;2023-09-12T10:46:40;28.50;99.90
22984;DHT22;11658;48.908;9.140;2023-09-12T10:49:10;28.60;99.90
22984;DHT22;11658;48.908;9.140;2023-09-12T10:51:43;28.50;99.90
22984;DHT22;11658;48.908;9.140;2023-09-12T10:54:13;28.60;99.90
22984;DHT22;11658;48.908;9.140;2023-09-12T10:56:38;28.80;99.90
22984;DHT22;11658;48.908;9.140;2023-09-12T11:01:33;29.20;99.90
22984;DHT22;11658;48.908;9.140;2023-09-12T11:04:04;29.10;99.90
22984;DHT22;11658;48.908;9.140;2023-09-12T11:06:45;29.10;99.90
22984;DHT22;11658;48.908;9.140;2023-09-12T11:11:43;28.90;99.90
22984;DHT22;11658;48.908;9.140;2023-09-12T11:14:09;28.80;99.90
22984;DHT22;11658;48.908;9.140;2023-09-12T11:16:35;28.80;99.90
22984;DHT22;11658;48.908;9.140;2023-09-12T11:19:19;28.90;99.90
22984;DHT22;11658;48.908;9.140;2023-09-12T11:21:50;28.90;99.90
22984;DHT22;11658;48.908;9.140;2023-09-12T11:24:16;29.00;99.90
22984;DHT22;11658;48.908;9.140;2023-09-12T11:27:02;29.00;99.90
22984;DHT22;11658;48.908;9.140;2023-09-12T11:29:40;29.00;99.90
22984;DHT22;11658;48.908;9.140;2023-09-12T11:32:06;28.90;99.90
22984;DHT22;11658;48.908;9.140;2023-09-12T11:34:41;28.90;99.90
22984;DHT22;11658;48.908;9.140;2023-09-12T11:37:07;29.00;99.90
22984;DHT22;11658;48.908;9.140;2023-09-12T11:39:35;29.00;99.90
22984;DHT22;11658;48.908;9.140;2023-09-12T11:42:03;28.90;99.90
22984;DHT22;11658;48.908;9.140;2023-09-12T11:44:29;29.00;99.90
22984;DHT22;11658;48.908;9.140;2023-09-12T11:46:59;29.10;99.90
22984;DHT22;11658;48.908;9.140;2023-09-12T11:49:35;29.30;99.90
22984;DHT22;11658;48.908;9.140;2023-09-12T11:52:01;29.20;99.90
22984;DHT22;11658;48.908;9.140;2023-09-12T11:54:29;29.10;99.90
22984;DHT22;11658;48.908;9.140;2023-09-12T11:56:57;29.20;99.90
22984;DHT22;11658;48.908;9.140;2023-09-12T11:59:31;29.40;99.90
22984;DHT22;11658;48.908;9.140;2023-09-12T12:01:57;29.50;99.90
22984;DHT22;11658;48.908;9.140;2023-09-12T12:04:24;29.60;99.90
22984;DHT22;11658;48.908;9.140;2023-09-12T12:06:52;29.70;99.90
22984;DHT22;11658;48.908;9.140;2023-09-12T12:09:18;29.90;99.90
22984;DHT22;11658;48.908;9.140;2023-09-12T12:11:46;30.10;99.90
22984;DHT22;11658;48.908;9.140;2023-09-12T12:14:12;30.30;99.90
22984;DHT22;11658;48.908;9.140;2023-09-12T12:16:39;30.50;99.90
22984;DHT22;11658;48.908;9.140;2023-09-12T12:19:05;30.40;99.90
22984;DHT22;11658;48.908;9.140;2023-09-12T12:21:30;30.00;99.90
22984;DHT22;11658;48.908;9.140;2023-09-12T12:24:03;29.90;99.90
22984;DHT22;11658;48.908;9.140;2023-09-12T12:26:33;29.70;99.90
22984;DHT22;11658;48.908;9.140;2023-09-12T12:29:00;29.80;99.90
22984;DHT22;11658;48.908;9.140;2023-09-12T12:31:26;30.00;99.90
22984;DHT22;11658;48.908;9.140;2023-09-12T12:33:56;30.20;99.90
22984;DHT22;11658;48.908;9.140;2023-09-12T12:36:22;30.30;99.90
22984;DHT22;11658;48.908;9.140;2023-09-12T12:38:49;30.50;99.90
22984;DHT22;11658;48.908;9.140;2023-09-12T12:41:16;30.90;99.90
22984;DHT22;11658;48.908;9.140;2023-09-12T12:43:49;31.20;99.90
22984;DHT22;11658;48.908;9.140;2023-09-12T12:46:17;31.10;99.90
22984;DHT22;11658;48.908;9.140;2023-09-12T12:48:45;30.80;99.90
22984;DHT22;11658;48.908;9.140;2023-09-12T12:51:23;30.30;99.90
22984;DHT22;11658;48.908;9.140;2023-09-12T12:53:54;29.90;99.90
22984;DHT22;11658;48.908;9.140;2023-09-12T12:56:27;29.90;99.90
22984;DHT22;11658;48.908;9.140;2023-09-12T12:58:59;29.90;99.90
22984;DHT22;11658;48.908;9.140;2023-09-12T13:01:28;29.90;99.90
22984;DHT22;11658;48.908;9.140;2023-09-12T13:03:54;29.90;99.90
22984;DHT22;11658;48.908;9.140;2023-09-12T13:06:22;30.10;99.90
22984;DHT22;11658;48.908;9.140;2023-09-12T13:08:49;30.10;99.90
22984;DHT22;11658;48.908;9.140;2023-09-12T13:11:15;30.00;99.90
22984;DHT22;11658;48.908;9.140;2023-09-12T13:13:42;30.00;99.90
22984;DHT22;11658;48.908;9.140;2023-09-12T13:16:09;30.10;99.90
22984;DHT22;11658;48.908;9.140;2023-09-12T13:18:38;30.10;99.90
22984;DHT22;11658;48.908;9.140;2023-09-12T13:21:05;30.40;99.90
22984;DHT22;11658;48.908;9.140;2023-09-12T13:23:33;30.60;99.90
22984;DHT22;11658;48.908;9.140;2023-09-12T13:25:59;30.70;99.90
22984;DHT22;11658;48.908;9.140;2023-09-12T13:28:24;30.70;99.90
22984;DHT22;11658;48.908;9.140;2023-09-12T13:30:53;30.50;99.90
22984;DHT22;11658;48.908;9.140;2023-09-12T13:33:19;30.30;99.90
22984;DHT22;11658;48.908;9.140;2023-09-12T13:35:45;30.10;99.90
22984;DHT22;11658;48.908;9.140;2023-09-12T13:38:10;30.00;99.90
22984;DHT22;11658;48.908;9.140;2023-09-12T13:40:38;29.90;99.90
22984;DHT22;11658;48.908;9.140;2023-09-12T13:43:05;29.90;99.90
22984;DHT22;11658;48.908;9.140;2023-09-12T13:45:30;29.80;99.90
22984;DHT22;11658;48.908;9.140;2023-09-12T13:47:57;29.80;99.90
22984;DHT22;11658;48.908;9.140;2023-09-12T13:50:24;29.80;99.90
22984;DHT22;11658;48.908;9.140;2023-09-12T13:52:50;29.80;99.90
22984;DHT22;11658;48.908;9.140;2023-09-12T13:55:15;29.90;99.90
22984;DHT22;11658;48.908;9.140;2023-09-12T13:57:41;30.00;99.90
22984;DHT22;11658;48.908;9.140;2023-09-12T14:00:08;30.00;99.90
22984;DHT22;11658;48.908;9.140;2023-09-12T14:02:34;29.90;99.90
22984;DHT22;11658;48.908;9.140;2023-09-12T14:04:59;30.10;99.90
22984;DHT22;11658;48.908;9.140;2023-09-12T14:07:26;30.10;99.90
22984;DHT22;11658;48.908;9.140;2023-09-12T14:09:51;30.00;99.90
22984;DHT22;11658;48.908;9.140;2023-09-12T14:12:23;29.80;99.90
22984;DHT22;11658;48.908;9.140;2023-09-12T14:14:49;29.70;99.90
22984;DHT22;11658;48.908;9.140;2023-09-12T14:17:15;29.70;99.90
22984;DHT22;11658;48.908;9.140;2023-09-12T14:19:42;29.70;99.90
22984;DHT22;11658;48.908;9.140;2023-09-12T14:22:07;29.70;99.90
22984;DHT22;11658;48.908;9.140;2023-09-12T14:24:33;29.80;99.90
22984;DHT22;11658;48.908;9.140;2023-09-12T14:26:58;29.90;99.90
22984;DHT22;11658;48.908;9.140;2023-09-12T14:29:24;30.10;99.90
22984;DHT22;11658;48.908;9.140;2023-09-12T14:31:52;30.10;99.90
22984;DHT22;11658;48.908;9.140;2023-09-12T14:34:24;30.20;99.90
22984;DHT22;11658;48.908;9.140;2023-09-12T14:36:53;30.30;99.90
22984;DHT22;11658;48.908;9.140;2023-09-12T14:39:18;30.40;99.90
22984;DHT22;11658;48.908;9.140;2023-09-12T14:41:44;30.50;99.90
22984;DHT22;11658;48.908;9.140;2023-09-12T14:44:14;30.50;99.90
22984;DHT22;11658;48.908;9.140;2023-09-12T14:46:40;30.40;99.90
22984;DHT22;11658;48.908;9.140;2023-09-12T14:49:06;30.40;99.90
22984;DHT22;11658;48.908;9.140;2023-09-12T14:51:31;30.40;99.90
22984;DHT22;11658;48.908;9.140;2023-09-12T14:53:57;30.30;99.90
22984;DHT22;11658;48.908;9.140;2023-09-12T14:56:22;30.00;99.90
22984;DHT22;11658;48.908;9.140;2023-09-12T14:58:49;30.10;99.90
22984;DHT22;11658;48.908;9.140;2023-09-12T15:01:14;30.00;99.90
22984;DHT22;11658;48.908;9.140;2023-09-12T15:03:40;30.10;99.90
22984;DHT22;11658;48.908;9.140;2023-09-12T15:06:05;30.20;99.90
22984;DHT22;11658;48.908;9.140;2023-09-12T15:08:32;30.30;99.90
22984;DHT22;11658;48.908;9.140;2023-09-12T15:11:01;30.40;99.90
22984;DHT22;11658;48.908;9.140;2023-09-12T15:13:27;30.40;99.90
22984;DHT22;11658;48.908;9.140;2023-09-12T15:15:52;30.40;99.90
22984;DHT22;11658;48.908;9.140;2023-09-12T15:18:18;30.50;99.90
22984;DHT22;11658;48.908;9.140;2023-09-12T15:20:43;30.40;99.90
22984;DHT22;11658;48.908;9.140;2023-09-12T15:23:09;30.50;99.90
22984;DHT22;11658;48.908;9.140;2023-09-12T15:25:35;30.50;99.90
22984;DHT22;11658;48.908;9.140;2023-09-12T15:28:02;30.70;99.90
22984;DHT22;11658;48.908;9.140;2023-09-12T15:30:27;30.60;99.90
22984;DHT22;11658;48.908;9.140;2023-09-12T15:32:53;30.60;99.90
22984;DHT22;11658;48.908;9.140;2023-09-12T15:35:19;30.60;99.90
22984;DHT22;11658;48.908;9.140;2023-09-12T15:37:44;30.70;99.90
22984;DHT22;11658;48.908;9.140;2023-09-12T15:40:10;30.80;99.90
22984;DHT22;11658;48.908;9.140;2023-09-12T15:42:36;31.00;99.90
22984;DHT22;11658;48.908;9.140;2023-09-12T15:45:02;31.20;99.90
22984;DHT22;11658;48.908;9.140;2023-09-12T15:47:29;31.40;99.90
22984;DHT22;11658;48.908;9.140;2023-09-12T15:49:55;31.40;99.90
22984;DHT22;11658;48.908;9.140;2023-09-12T15:52:21;31.30;99.90
22984;DHT22;11658;48.908;9.140;2023-09-12T15:54:47;31.20;99.90
22984;DHT22;11658;48.908;9.140;2023-09-12T15:57:14;31.10;99.90
22984;DHT22;11658;48.908;9.140;2023-09-12T15:59:40;30.90;99.90
22984;DHT22;11658;48.908;9.140;2023-09-12T16:02:06;30.80;99.90
22984;DHT22;11658;48.908;9.140;2023-09-12T16:04:31;30.80;99.90
22984;DHT22;11658;48.908;9.140;2023-09-12T16:06:57;30.80;99.90
22984;DHT22;11658;48.908;9.140;2023-09-12T16:09:22;30.80;99.90
22984;DHT22;11658;48.908;9.140;2023-09-12T16:11:48;30.90;99.90
22984;DHT22;11658;48.908;9.140;2023-09-12T16:14:15;30.90;99.90
22984;DHT22;11658;48.908;9.140;2023-09-12T16:16:41;31.00;99.90
22984;DHT22;11658;48.908;9.140;2023-09-12T16:19:07;31.20;99.90
22984;DHT22;11658;48.908;9.140;2023-09-12T16:21:34;31.20;99.90
22984;DHT22;11658;48.908;9.140;2023-09-12T16:24:00;31.30;99.90
22984;DHT22;11658;48.908;9.140;2023-09-12T16:26:26;31.40;99.90
22984;DHT22;11658;48.908;9.140;2023-09-12T16:28:51;31.50;99.90
22984;DHT22;11658;48.908;9.140;2023-09-12T16:31:17;31.30;99.90
22984;DHT22;11658;48.908;9.140;2023-09-12T16:33:42;31.20;99.90
22984;DHT22;11658;48.908;9.140;2023-09-12T16:36:08;31.10;99.90
22984;DHT22;11658;48.908;9.140;2023-09-12T16:38:34;31.00;99.90
22984;DHT22;11658;48.908;9.140;2023-09-12T16:41:00;31.00;99.90
22984;DHT22;11658;48.908;9.140;2023-09-12T16:43:25;31.00;99.90
22984;DHT22;11658;48.908;9.140;2023-09-12T16:45:51;31.10;99.90
22984;DHT22;11658;48.908;9.140;2023-09-12T16:48:16;31.40;99.90
22984;DHT22;11658;48.908;9.140;2023-09-12T16:50:44;31.90;99.90
22984;DHT22;11658;48.908;9.140;2023-09-12T16:53:10;32.10;99.90
22984;DHT22;11658;48.908;9.140;2023-09-12T16:55:36;31.90;99.90
22984;DHT22;11658;48.908;9.140;2023-09-12T16:58:02;32.00;99.90
22984;DHT22;11658;48.908;9.140;2023-09-12T17:00:28;32.30;99.90
22984;DHT22;11658;48.908;9.140;2023-09-12T17:02:53;32.20;99.90
22984;DHT22;11658;48.908;9.140;2023-09-12T17:05:19;32.00;99.90
22984;DHT22;11658;48.908;9.140;2023-09-12T17:07:48;31.60;99.90
22984;DHT22;11658;48.908;9.140;2023-09-12T17:10:13;31.20;99.90
22984;DHT22;11658;48.908;9.140;2023-09-12T17:12:39;30.90;99.90
22984;DHT22;11658;48.908;9.140;2023-09-12T17:15:06;30.70;99.90
22984;DHT22;11658;48.908;9.140;2023-09-12T17:17:32;30.30;99.90
22984;DHT22;11658;48.908;9.140;2023-09-12T17:19:57;30.10;99.90
22984;DHT22;11658;48.908;9.140;2023-09-12T17:22:23;29.80;99.90
22984;DHT22;11658;48.908;9.140;2023-09-12T17:24:49;29.60;99.90
22984;DHT22;11658;48.908;9.140;2023-09-12T17:27:15;29.40;99.90
22984;DHT22;11658;48.908;9.140;2023-09-12T17:29:41;29.10;99.90
22984;DHT22;11658;48.908;9.140;2023-09-12T17:32:10;28.90;99.90
22984;DHT22;11658;48.908;9.140;2023-09-12T17:34:44;28.60;99.90
22984;DHT22;11658;48.908;9.140;2023-09-12T17:37:12;28.30;99.90
22984;DHT22;11658;48.908;9.140;2023-09-12T17:39:38;28.10;99.90
22984;DHT22;11658;48.908;9.140;2023-09-12T17:42:04;27.90;99.90
22984;DHT22;11658;48.908;9.140;2023-09-12T17:44:30;27.70;99.90
22984;DHT22;11658;48.908;9.140;2023-09-12T17:46:56;27.50;99.90
22984;DHT22;11658;48.908;9.140;2023-09-12T17:49:21;27.30;99.90
22984;DHT22;11658;48.908;9.140;2023-09-12T17:51:47;27.30;99.90
22984;DHT22;11658;48.908;9.140;2023-09-12T17:54:13;27.20;99.90
22984;DHT22;11658;48.908;9.140;2023-09-12T17:56:39;27.00;99.90
22984;DHT22;11658;48.908;9.140;2023-09-12T17:59:06;26.80;99.90
22984;DHT22;11658;48.908;9.140;2023-09-12T18:01:32;26.50;99.90
22984;DHT22;11658;48.908;9.140;2023-09-12T18:03:57;26.30;99.90
22984;DHT22;11658;48.908;9.140;2023-09-12T18:06:23;26.10;99.90
22984;DHT22;11658;48.908;9.140;2023-09-12T18:08:49;26.00;99.90
22984;DHT22;11658;48.908;9.140;2023-09-12T18:11:15;25.90;99.90
22984;DHT22;11658;48.908;9.140;2023-09-12T18:13:41;25.80;99.90
22984;DHT22;11658;48.908;9.140;2023-09-12T18:16:07;25.80;99.90
22984;DHT22;11658;48.908;9.140;2023-09-12T18:18:33;25.70;99.90
22984;DHT22;11658;48.908;9.140;2023-09-12T18:20:58;25.50;99.90
22984;DHT22;11658;48.908;9.140;2023-09-12T18:23:24;25.30;99.90
22984;DHT22;11658;48.908;9.140;2023-09-12T18:25:50;25.20;99.90
22984;DHT22;11658;48.908;9.140;2023-09-12T18:28:48;25.10;99.90
22984;DHT22;11658;48.908;9.140;2023-09-12T18:31:15;24.90;99.90
22984;DHT22;11658;48.908;9.140;2023-09-12T18:33:42;24.80;99.90
22984;DHT22;11658;48.908;9.140;2023-09-12T18:36:09;24.80;99.90
22984;DHT22;11658;48.908;9.140;2023-09-12T18:38:40;24.80;99.90
22984;DHT22;11658;48.908;9.140;2023-09-12T18:41:06;24.80;99.90
22984;DHT22;11658;48.908;9.140;2023-09-12T18:43:32;24.70;99.90
22984;DHT22;11658;48.908;9.140;2023-09-12T18:45:58;24.70;99.90
22984;DHT22;11658;48.908;9.140;2023-09-12T18:48:23;24.60;99.90
22984;DHT22;11658;48.908;9.140;2023-09-12T18:50:49;24.50;99.90
22984;DHT22;11658;48.908;9.140;2023-09-12T18:53:19;24.50;99.90
22984;DHT22;11658;48.908;9.140;2023-09-12T18:55:48;24.40;99.90
22984;DHT22;11658;48.908;9.140;2023-09-12T18:58:14;24.40;99.90
22984;DHT22;11658;48.908;9.140;2023-09-12T19:00:41;24.30;99.90
22984;DHT22;11658;48.908;9.140;2023-09-12T19:03:08;24.30;99.90
22984;DHT22;11658;48.908;9.140;2023-09-12T19:05:34;24.20;99.90
22984;DHT22;11658;48.908;9.140;2023-09-12T19:08:00;24.20;99.90
22984;DHT22;11658;48.908;9.140;2023-09-12T19:10:26;24.20;99.90
22984;DHT22;11658;48.908;9.140;2023-09-12T19:12:52;24.20;99.90
22984;DHT22;11658;48.908;9.140;2023-09-12T19:15:18;24.10;99.90
22984;DHT22;11658;48.908;9.140;2023-09-12T19:17:44;24.20;99.90
22984;DHT22;11658;48.908;9.140;2023-09-12T19:20:10;24.10;99.90
22984;DHT22;11658;48.908;9.140;2023-09-12T19:22:38;24.10;99.90
22984;DHT22;11658;48.908;9.140;2023-09-12T19:25:04;24.20;99.90
22984;DHT22;11658;48.908;9.140;2023-09-12T19:27:30;24.20;99.90
22984;DHT22;11658;48.908;9.140;2023-09-12T19:29:55;24.10;99.90
22984;DHT22;11658;48.908;9.140;2023-09-12T19:32:21;24.00;99.90
22984;DHT22;11658;48.908;9.140;2023-09-12T19:34:47;24.00;99.90
22984;DHT22;11658;48.908;9.140;2023-09-12T19:37:13;24.00;99.90
22984;DHT22;11658;48.908;9.140;2023-09-12T19:39:39;24.00;99.90
22984;DHT22;11658;48.908;9.140;2023-09-12T19:42:05;24.00;99.90
22984;DHT22;11658;48.908;9.140;2023-09-12T19:44:31;23.90;99.90